Time;durP1;ratioP1;P1;durP2;ratioP2;P2;SDS_P1;SDS_P2;PMS_P1;PMS_P2;Temp;Humidity;BMP_temperature;BMP_pressure;BME280_temperature;BME280_humidity;BME280_pressure;Samples;Min_cycle;Max_cycle;Signal;HPM_P1;HPM_P2
2022/04/13 00:00:12;;;;;;;6.63;4.20;;;10.40;79.30;;;;;;5050831;28;20615;-67
2022/04/13 00:02:39;;;;;;;6.60;3.83;;;10.40;80.70;;;;;;5051034;28;20449;-67
2022/04/13 00:05:10;;;;;;;7.13;4.60;;;10.30;80.40;;;;;;5050398;28;20485;-67
2022/04/13 00:07:37;;;;;;;7.17;4.27;;;10.30;79.50;;;;;;5050774;28;20457;-67
2022/04/13 00:10:05;;;;;;;7.07;3.70;;;10.30;79.90;;;;;;5050865;28;20477;-66
2022/04/13 00:12:32;;;;;;;7.23;3.37;;;10.30;80.30;;;;;;5050940;28;20864;-66
2022/04/13 00:14:59;;;;;;;7.60;4.23;;;10.20;80.50;;;;;;5050314;28;20949;-67
2022/04/13 00:17:26;;;;;;;6.03;4.33;;;10.30;79.90;;;;;;5050639;28;20462;-66
2022/04/13 00:19:54;;;;;;;6.80;4.17;;;10.20;80.10;;;;;;5050812;28;20465;-67
2022/04/13 00:22:22;;;;;;;6.43;3.30;;;10.20;80.80;;;;;;5050847;28;20802;-66
2022/04/13 00:24:49;;;;;;;8.33;4.17;;;10.20;80.80;;;;;;5050739;28;20508;-67
2022/04/13 00:27:17;;;;;;;9.93;3.70;;;10.10;81.40;;;;;;5050675;28;20450;-67
2022/04/13 00:29:44;;;;;;;8.00;4.40;;;10.10;82.10;;;;;;5050199;28;20933;-67
2022/04/13 00:32:11;;;;;;;8.13;5.30;;;10.00;82.80;;;;;;5050401;28;20465;-67
2022/04/13 00:34:38;;;;;;;8.87;5.30;;;9.90;85.20;;;;;;5050566;28;20446;-67
2022/04/13 00:37:05;;;;;;;10.27;4.83;;;9.90;86.50;;;;;;5050134;28;20486;-66
2022/04/13 00:39:34;;;;;;;8.43;5.57;;;9.80;88.00;;;;;;5050427;28;20454;-67
2022/04/13 00:42:04;;;;;;;11.10;5.73;;;9.70;88.80;;;;;;5050079;28;20457;-67
2022/04/13 00:44:31;;;;;;;8.60;5.00;;;9.50;89.50;;;;;;5050155;28;20888;-66
2022/04/13 00:47:01;;;;;;;7.53;4.73;;;9.20;90.30;;;;;;5050184;28;20892;-67
2022/04/13 00:49:28;;;;;;;12.23;5.17;;;9.20;90.70;;;;;;5049789;28;20506;-67
2022/04/13 00:51:59;;;;;;;9.23;5.03;;;9.20;91.10;;;;;;5050421;28;20442;-67
2022/04/13 00:54:30;;;;;;;7.90;4.70;;;9.20;91.10;;;;;;5049983;28;20481;-66
2022/04/13 00:56:59;;;;;;;7.23;4.53;;;9.20;91.30;;;;;;5049749;28;20446;-66
2022/04/13 00:59:27;;;;;;;7.77;4.73;;;9.20;91.80;;;;;;5049789;28;20855;-67
2022/04/13 01:01:58;;;;;;;10.90;4.80;;;9.20;92.00;;;;;;5049720;28;20513;-67
2022/04/13 01:04:28;;;;;;;6.10;3.90;;;9.10;92.10;;;;;;5050201;28;20556;-67
2022/04/13 01:06:55;;;;;;;7.00;4.47;;;9.00;92.70;;;;;;5049684;28;20446;-66
2022/04/13 01:09:25;;;;;;;7.50;5.20;;;9.00;92.80;;;;;;5049987;28;20468;-67
2022/04/13 01:11:52;;;;;;;7.83;4.67;;;9.10;92.70;;;;;;5050122;28;20512;-66
2022/04/13 01:14:21;;;;;;;7.30;5.00;;;9.20;93.00;;;;;;5049891;28;20541;-67
2022/04/13 01:16:48;;;;;;;6.83;4.63;;;9.20;93.10;;;;;;5049144;28;20559;-67
2022/04/13 01:19:17;;;;;;;6.87;4.40;;;9.00;93.20;;;;;;5049668;28;20892;-67
2022/04/13 01:21:52;;;;;;;8.93;5.20;;;9.00;93.40;;;;;;5049587;28;20505;-67
2022/04/13 01:24:22;;;;;;;9.60;4.87;;;9.00;93.40;;;;;;5048855;28;20485;-66
2022/04/13 01:26:49;;;;;;;6.63;3.80;;;8.90;93.50;;;;;;5049171;28;20954;-67
2022/04/13 01:29:16;;;;;;;7.20;4.30;;;8.90;93.60;;;;;;5048461;28;20962;-67
2022/04/13 01:31:44;;;;;;;7.90;3.87;;;8.90;93.90;;;;;;5048876;28;20472;-68
2022/04/13 01:34:13;;;;;;;6.70;4.60;;;9.00;94.00;;;;;;5048914;28;20455;-66
2022/04/13 01:36:40;;;;;;;8.00;4.30;;;9.00;94.20;;;;;;5048839;28;20732;-67
2022/04/13 01:39:08;;;;;;;6.10;4.20;;;9.00;94.60;;;;;;5047636;28;20879;-67
2022/04/13 01:41:36;;;;;;;8.17;4.90;;;9.10;94.50;;;;;;5048782;28;20473;-67
2022/04/13 01:44:04;;;;;;;6.60;4.80;;;9.10;94.70;;;;;;5049511;28;20449;-67
2022/04/13 01:46:31;;;;;;;8.93;5.60;;;8.90;95.80;;;;;;5049004;28;20485;-67
2022/04/13 01:48:58;;;;;;;8.30;5.60;;;8.50;97.30;;;;;;5048730;28;20486;-66
2022/04/13 01:51:25;;;;;;;14.00;6.73;;;8.20;98.90;;;;;;5049086;28;20473;-66
2022/04/13 01:53:52;;;;;;;9.37;6.40;;;8.00;99.90;;;;;;5048948;28;20449;-67
2022/04/13 01:56:19;;;;;;;7.10;4.77;;;7.90;99.90;;;;;;5048254;28;20465;-67
2022/04/13 01:58:48;;;;;;;10.93;6.20;;;8.20;99.90;;;;;;5049049;28;20465;-67
2022/04/13 02:01:16;;;;;;;16.90;6.37;;;8.30;99.90;;;;;;5048520;28;20474;-67
2022/04/13 02:03:43;;;;;;;12.60;7.13;;;8.40;99.90;;;;;;5048908;28;20454;-67
2022/04/13 02:06:10;;;;;;;15.50;8.27;;;8.60;99.90;;;;;;5048326;28;20482;-67
2022/04/13 02:08:37;;;;;;;10.33;7.63;;;8.60;99.90;;;;;;5049208;28;20453;-67
2022/04/13 02:11:05;;;;;;;9.87;6.87;;;8.70;99.90;;;;;;5048577;28;20493;-67
2022/04/13 02:13:32;;;;;;;10.07;6.00;;;8.80;99.90;;;;;;5048836;28;20797;-67
2022/04/13 02:16:00;;;;;;;12.60;6.27;;;8.80;99.90;;;;;;5048307;28;20450;-67
2022/04/13 02:18:27;;;;;;;11.50;7.83;;;8.80;99.90;;;;;;5048569;28;20457;-67
2022/04/13 02:20:55;;;;;;;13.53;7.80;;;8.70;99.90;;;;;;5048696;28;21217;-67
2022/04/13 02:23:22;;;;;;;10.43;6.40;;;8.80;99.90;;;;;;5049113;28;20939;-66
2022/04/13 02:25:49;;;;;;;8.17;5.63;;;8.80;99.90;;;;;;5048736;28;20485;-67
2022/04/13 02:28:17;;;;;;;9.40;6.50;;;8.80;99.90;;;;;;5048888;28;20792;-67
2022/04/13 02:30:44;;;;;;;9.13;5.93;;;8.90;99.90;;;;;;5052166;28;20473;-66
2022/04/13 02:33:12;;;;;;;9.80;6.60;;;9.00;99.90;;;;;;5052395;28;21031;-67
2022/04/13 02:35:40;;;;;;;8.83;5.80;;;8.80;99.90;;;;;;5052352;28;20457;-67
2022/04/13 02:38:07;;;;;;;11.40;6.30;;;8.70;99.90;;;;;;5052941;28;20456;-67
2022/04/13 02:40:34;;;;;;;9.73;7.03;;;8.60;99.90;;;;;;5052699;28;21390;-67
2022/04/13 02:43:01;;;;;;;8.23;6.43;;;8.70;99.90;;;;;;5052471;28;20445;-66
2022/04/13 02:45:29;;;;;;;9.80;7.00;;;8.80;99.90;;;;;;5052587;28;20482;-67
2022/04/13 02:47:56;;;;;;;10.63;7.13;;;8.80;99.90;;;;;;5053757;28;20457;-68
2022/04/13 02:50:24;;;;;;;13.33;8.37;;;8.70;99.90;;;;;;5052561;28;21016;-67
2022/04/13 02:52:54;;;;;;;10.47;7.57;;;8.70;99.90;;;;;;5052277;28;20457;-67
2022/04/13 02:55:21;;;;;;;10.93;7.77;;;8.30;99.90;;;;;;5052144;28;20453;-68
2022/04/13 02:57:50;;;;;;;10.67;7.60;;;8.10;99.90;;;;;;5051815;28;21227;-66
2022/04/13 03:00:17;;;;;;;11.43;7.40;;;8.10;99.90;;;;;;5051865;28;21276;-67
2022/04/13 03:02:45;;;;;;;11.43;7.90;;;8.10;99.90;;;;;;5051447;28;20454;-67
2022/04/13 03:05:12;;;;;;;10.40;7.77;;;8.00;99.90;;;;;;5051917;28;20569;-67
2022/04/13 03:07:41;;;;;;;13.50;8.20;;;8.00;99.90;;;;;;5051883;28;20457;-68
2022/04/13 03:10:09;;;;;;;12.27;7.40;;;8.10;99.90;;;;;;5051450;28;20481;-67
2022/04/13 03:12:36;;;;;;;11.77;7.60;;;8.30;99.90;;;;;;5051944;28;20928;-66
2022/04/13 03:15:06;;;;;;;9.70;7.63;;;8.30;99.90;;;;;;5051960;28;20453;-67
2022/04/13 03:17:33;;;;;;;13.80;6.80;;;8.20;99.90;;;;;;5051457;28;20519;-67
2022/04/13 03:20:01;;;;;;;11.70;7.70;;;8.30;99.90;;;;;;5051125;28;20907;-68
2022/04/13 03:22:28;;;;;;;11.50;7.33;;;8.40;99.90;;;;;;5051320;28;20450;-67
2022/04/13 03:25:00;;;;;;;14.00;7.83;;;8.50;99.90;;;;;;5050975;28;20540;-67
2022/04/13 03:27:27;;;;;;;11.47;7.73;;;8.50;99.90;;;;;;5050980;28;20446;-68
2022/04/13 03:29:54;;;;;;;16.60;8.13;;;8.60;99.90;;;;;;5051471;28;20458;-68
2022/04/13 03:32:21;;;;;;;11.23;8.17;;;8.60;99.90;;;;;;5052029;28;20488;-68
2022/04/13 03:34:48;;;;;;;11.70;6.90;;;8.60;99.90;;;;;;5051731;28;20447;-68
2022/04/13 03:37:15;;;;;;;12.20;8.07;;;8.50;99.90;;;;;;5051510;28;20457;-67
2022/04/13 03:39:42;;;;;;;10.03;7.03;;;8.40;99.90;;;;;;5051461;28;20508;-67
2022/04/13 03:42:11;;;;;;;11.20;8.30;;;8.20;99.90;;;;;;5051541;28;20459;-67
2022/04/13 03:44:38;;;;;;;13.47;9.13;;;8.10;99.90;;;;;;5051679;28;20449;-68
2022/04/13 03:47:06;;;;;;;12.20;8.10;;;8.20;99.90;;;;;;5051303;28;20490;-68
2022/04/13 03:49:33;;;;;;;11.27;8.87;;;8.20;99.90;;;;;;5051124;28;20573;-69
2022/04/13 03:52:00;;;;;;;27.60;8.00;;;8.30;99.90;;;;;;5051279;28;20929;-68
2022/04/13 03:54:27;;;;;;;15.30;8.70;;;8.40;99.90;;;;;;5051216;28;20486;-68
2022/04/13 03:56:54;;;;;;;10.20;8.03;;;8.50;99.90;;;;;;5051283;28;20454;-67
2022/04/13 03:59:23;;;;;;;8.90;7.07;;;8.40;99.90;;;;;;5050846;28;20503;-68
2022/04/13 04:01:50;;;;;;;11.53;7.80;;;8.50;99.90;;;;;;5050579;28;20502;-67
2022/04/13 04:04:18;;;;;;;11.13;8.17;;;8.50;99.90;;;;;;5051202;28;20457;-67
2022/04/13 04:06:45;;;;;;;14.40;8.20;;;8.60;99.90;;;;;;5050814;28;20489;-67
2022/04/13 04:09:12;;;;;;;17.23;8.70;;;8.70;99.90;;;;;;5051045;28;20779;-68
2022/04/13 04:11:39;;;;;;;13.60;9.33;;;8.80;99.90;;;;;;5050441;28;20858;-68
2022/04/13 04:14:07;;;;;;;16.03;9.73;;;8.90;99.90;;;;;;5043583;28;20457;-67
2022/04/13 04:16:35;;;;;;;15.57;9.03;;;8.70;99.90;;;;;;5050557;28;20449;-68
2022/04/13 04:19:02;;;;;;;14.20;9.50;;;8.70;99.90;;;;;;5050598;28;20461;-67
2022/04/13 04:21:29;;;;;;;19.50;10.03;;;8.60;99.90;;;;;;5050633;28;20473;-67
2022/04/13 04:23:56;;;;;;;18.40;11.03;;;8.60;99.90;;;;;;5050664;28;20483;-67
2022/04/13 04:26:23;;;;;;;15.80;10.13;;;8.70;99.90;;;;;;5049676;28;20485;-67
2022/04/13 04:28:50;;;;;;;19.70;11.00;;;8.70;99.90;;;;;;5049661;28;20974;-67
2022/04/13 04:31:19;;;;;;;21.73;12.30;;;8.70;99.90;;;;;;5049903;28;20477;-67
2022/04/13 04:33:48;;;;;;;17.07;11.93;;;8.60;99.90;;;;;;5050085;28;20457;-68
2022/04/13 04:36:15;;;;;;;24.13;13.07;;;8.70;99.90;;;;;;5049715;28;20899;-67
2022/04/13 04:38:42;;;;;;;25.20;15.10;;;8.80;99.90;;;;;;5050384;28;20498;-67
2022/04/13 04:41:09;;;;;;;23.70;14.07;;;8.80;99.90;;;;;;5050443;28;20469;-68
2022/04/13 04:43:37;;;;;;;22.53;13.97;;;8.70;99.90;;;;;;5050451;28;20480;-68
2022/04/13 04:46:04;;;;;;;24.40;14.53;;;8.60;99.90;;;;;;5032294;28;21045;-68
2022/04/13 04:48:31;;;;;;;23.27;14.43;;;8.70;99.90;;;;;;5030259;28;20482;-67
2022/04/13 04:51:00;;;;;;;24.83;14.77;;;8.70;99.90;;;;;;5047068;28;20973;-68
2022/04/13 04:53:27;;;;;;;23.80;16.03;;;8.70;99.90;;;;;;5040176;28;20447;-67
2022/04/13 04:55:54;;;;;;;22.60;13.47;;;8.70;99.90;;;;;;5030549;28;20474;-67
2022/04/13 04:58:21;;;;;;;26.53;14.60;;;8.80;99.90;;;;;;5030181;28;20455;-68
2022/04/13 05:00:48;;;;;;;24.90;14.40;;;8.70;99.90;;;;;;5030347;28;20478;-68
2022/04/13 05:03:15;;;;;;;16.20;12.53;;;8.70;99.90;;;;;;5038501;28;20468;-67
2022/04/13 05:05:42;;;;;;;20.33;12.23;;;8.70;99.90;;;;;;5032205;28;20458;-68
2022/04/13 05:08:10;;;;;;;18.10;13.00;;;8.80;99.90;;;;;;5035675;28;20455;-67
2022/04/13 05:10:37;;;;;;;19.67;12.67;;;9.00;99.90;;;;;;5029854;28;20482;-67
2022/04/13 05:13:06;;;;;;;14.87;9.73;;;9.10;99.90;;;;;;5048750;28;20454;-67
2022/04/13 05:15:33;;;;;;;16.20;10.97;;;9.20;99.90;;;;;;5049803;28;20504;-67
2022/04/13 05:18:00;;;;;;;18.47;11.30;;;9.20;99.90;;;;;;5049658;28;20449;-67
2022/04/13 05:20:28;;;;;;;17.83;11.60;;;9.30;99.90;;;;;;5049600;28;20477;-65
2022/04/13 05:22:55;;;;;;;14.53;10.27;;;9.20;99.90;;;;;;5049494;28;20862;-66
2022/04/13 05:25:23;;;;;;;18.63;11.40;;;9.20;99.90;;;;;;5049755;28;20454;-66
2022/04/13 05:27:50;;;;;;;19.90;11.63;;;8.90;99.90;;;;;;5048988;28;20482;-67
2022/04/13 05:30:17;;;;;;;16.57;10.33;;;8.90;99.90;;;;;;5048002;28;20473;-67
2022/04/13 05:32:49;;;;;;;12.57;9.50;;;8.80;99.90;;;;;;5049177;28;20500;-67
2022/04/13 05:35:16;;;;;;;19.77;10.53;;;8.70;99.90;;;;;;5047848;28;21001;-70
2022/04/13 05:37:44;;;;;;;15.10;10.10;;;8.70;99.90;;;;;;5048431;28;20456;-71
2022/04/13 05:40:11;;;;;;;12.97;8.80;;;8.60;99.90;;;;;;5048329;28;20485;-70
2022/04/13 05:42:40;;;;;;;13.90;8.97;;;8.60;99.90;;;;;;5047705;28;20446;-70
2022/04/13 05:45:08;;;;;;;11.27;8.60;;;8.60;99.90;;;;;;5048236;28;20500;-69
2022/04/13 05:47:37;;;;;;;18.07;10.90;;;8.70;99.90;;;;;;5048202;28;20984;-70
2022/04/13 05:50:04;;;;;;;13.67;9.90;;;8.60;99.90;;;;;;5048373;28;20516;-70
2022/04/13 05:52:31;;;;;;;13.40;10.20;;;8.70;99.90;;;;;;5048547;28;20465;-71
2022/04/13 05:54:59;;;;;;;18.90;10.93;;;9.00;99.90;;;;;;5048955;28;20461;-69
2022/04/13 05:57:26;;;;;;;16.57;9.27;;;9.20;99.90;;;;;;5048766;28;20453;-70
2022/04/13 05:59:54;;;;;;;15.73;11.23;;;9.20;99.90;;;;;;5048835;28;20452;-68
2022/04/13 06:02:21;;;;;;;17.13;9.93;;;9.30;99.90;;;;;;5047854;28;20450;-69
2022/04/13 06:04:49;;;;;;;15.37;10.20;;;9.50;99.90;;;;;;5052224;28;20453;-70
2022/04/13 06:07:16;;;;;;;15.47;9.37;;;9.70;99.90;;;;;;5051730;28;21037;-71
2022/04/13 06:09:43;;;;;;;17.23;9.90;;;9.90;99.90;;;;;;5052752;28;20949;-71
2022/04/13 06:12:11;;;;;;;16.50;8.83;;;10.20;99.90;;;;;;5053143;28;20759;-69
2022/04/13 06:14:38;;;;;;;11.57;8.90;;;10.40;99.70;;;;;;5052844;28;20469;-69
2022/04/13 06:17:07;;;;;;;11.13;7.70;;;10.50;99.00;;;;;;5052386;28;20525;-71
2022/04/13 06:19:34;;;;;;;13.40;8.10;;;10.60;97.90;;;;;;5050608;28;21186;-70
2022/04/13 06:22:01;;;;;;;13.83;8.00;;;10.90;97.00;;;;;;5050087;28;21147;-70
2022/04/13 06:24:28;;;;;;;10.23;7.77;;;11.10;96.10;;;;;;5050582;28;20453;-70
2022/04/13 06:26:55;;;;;;;12.63;6.97;;;11.40;94.30;;;;;;5052593;28;20497;-69
2022/04/13 06:29:22;;;;;;;9.23;6.37;;;11.60;93.70;;;;;;5052872;28;20445;-69
2022/04/13 06:31:49;;;;;;;11.07;6.70;;;11.80;92.40;;;;;;5052740;28;20559;-69
2022/04/13 06:34:17;;;;;;;11.40;7.10;;;12.10;90.90;;;;;;5052751;28;20500;-69
2022/04/13 06:36:44;;;;;;;12.40;7.30;;;12.20;90.60;;;;;;5052246;28;20454;-69
2022/04/13 06:39:12;;;;;;;9.87;7.40;;;12.20;90.20;;;;;;5052594;28;20454;-68
2022/04/13 06:41:39;;;;;;;9.57;6.93;;;12.40;88.80;;;;;;5052511;28;20485;-69
2022/04/13 06:44:07;;;;;;;11.43;6.90;;;12.40;86.10;;;;;;5052627;28;20454;-70
2022/04/13 06:46:36;;;;;;;11.73;8.40;;;12.60;84.80;;;;;;5050582;28;20489;-70
2022/04/13 06:49:03;;;;;;;14.40;8.50;;;12.80;85.00;;;;;;5051809;28;20489;-69
2022/04/13 06:51:33;;;;;;;12.43;8.40;;;13.00;86.20;;;;;;5052005;28;20500;-70
2022/04/13 06:54:00;;;;;;;11.27;7.70;;;13.20;84.80;;;;;;5052390;28;20997;-69
2022/04/13 06:56:27;;;;;;;11.37;7.33;;;13.20;85.50;;;;;;5051854;28;20458;-70
2022/04/13 06:58:54;;;;;;;12.03;8.53;;;13.20;84.70;;;;;;5052194;28;20467;-69
2022/04/13 07:01:21;;;;;;;13.13;8.10;;;13.10;84.20;;;;;;5051563;28;20481;-67
2022/04/13 07:03:48;;;;;;;13.60;8.83;;;13.20;84.40;;;;;;5051433;28;20861;-67
2022/04/13 07:06:15;;;;;;;12.70;9.40;;;13.50;83.40;;;;;;5051587;28;20454;-67
2022/04/13 07:08:44;;;;;;;13.00;7.17;;;13.70;83.30;;;;;;5051544;28;20539;-67
2022/04/13 07:11:11;;;;;;;9.30;7.07;;;14.00;80.70;;;;;;5051264;28;20481;-68
2022/04/13 07:13:38;;;;;;;15.70;6.93;;;13.80;76.70;;;;;;5051876;28;20469;-69
2022/04/13 07:16:05;;;;;;;10.40;7.90;;;13.80;77.60;;;;;;5051222;28;20446;-67
2022/04/13 07:18:34;;;;;;;13.30;9.63;;;13.80;77.00;;;;;;5052040;28;20572;-67
2022/04/13 07:21:02;;;;;;;10.20;7.60;;;13.80;77.10;;;;;;5051998;28;21036;-67
2022/04/13 07:23:29;;;;;;;10.50;7.63;;;14.00;78.20;;;;;;5052095;28;20516;-67
2022/04/13 07:25:58;;;;;;;15.30;7.23;;;14.00;77.00;;;;;;5051901;28;20821;-69
2022/04/13 07:28:25;;;;;;;9.90;6.90;;;14.20;76.80;;;;;;5051686;28;20482;-67
2022/04/13 07:30:52;;;;;;;10.50;6.03;;;14.50;75.80;;;;;;5051528;28;20481;-68
2022/04/13 07:33:19;;;;;;;10.17;7.40;;;14.80;73.80;;;;;;5051432;28;20477;-68
2022/04/13 07:35:46;;;;;;;11.77;6.90;;;14.90;72.60;;;;;;5051574;28;20469;-67
2022/04/13 07:38:14;;;;;;;12.00;6.90;;;15.20;70.80;;;;;;5051002;28;20477;-67
2022/04/13 07:40:41;;;;;;;9.30;7.17;;;15.50;68.80;;;;;;5051314;28;21199;-68
2022/04/13 07:43:09;;;;;;;11.90;6.73;;;15.60;68.40;;;;;;5051294;28;20545;-67
2022/04/13 07:45:36;;;;;;;10.77;7.07;;;15.70;66.30;;;;;;5051122;28;20446;-67
2022/04/13 07:48:03;;;;;;;11.63;7.10;;;15.50;65.40;;;;;;5050884;28;20493;-67
2022/04/13 07:50:30;;;;;;;10.60;8.47;;;15.30;66.10;;;;;;5051290;28;20470;-69
2022/04/13 07:52:59;;;;;;;13.60;8.30;;;15.40;65.60;;;;;;5051221;28;20450;-68
2022/04/13 07:55:26;;;;;;;11.10;6.80;;;15.60;64.90;;;;;;5050597;28;20545;-68
2022/04/13 07:57:53;;;;;;;11.13;7.73;;;15.80;65.10;;;;;;5050428;28;20450;-67
2022/04/13 08:00:21;;;;;;;9.73;6.57;;;15.80;63.90;;;;;;5050571;28;20516;-68
2022/04/13 08:02:48;;;;;;;10.93;6.80;;;16.00;63.70;;;;;;5050031;28;20472;-67
2022/04/13 08:05:16;;;;;;;9.17;6.40;;;16.20;63.40;;;;;;5050527;28;20536;-66
2022/04/13 08:07:43;;;;;;;9.20;6.67;;;16.20;61.80;;;;;;5051041;28;20559;-67
2022/04/13 08:10:10;;;;;;;11.63;6.63;;;16.20;61.40;;;;;;5049689;28;20486;-69
2022/04/13 08:12:40;;;;;;;17.33;7.43;;;16.50;62.00;;;;;;5050556;28;20446;-68
2022/04/13 08:15:08;;;;;;;10.07;6.80;;;16.60;60.90;;;;;;5050764;28;20648;-68
2022/04/13 08:17:38;;;;;;;13.27;7.50;;;17.00;59.40;;;;;;5050580;28;20454;-67
2022/04/13 08:20:08;;;;;;;12.33;8.37;;;17.10;57.20;;;;;;5050446;28;21003;-67
2022/04/13 08:22:35;;;;;;;11.80;6.93;;;17.10;57.20;;;;;;5050733;28;20454;-69
2022/04/13 08:25:02;;;;;;;10.77;8.10;;;17.10;58.50;;;;;;5050602;28;20869;-66
2022/04/13 08:27:29;;;;;;;8.73;7.07;;;17.40;57.60;;;;;;5049101;28;20501;-68
2022/04/13 08:29:56;;;;;;;10.17;6.70;;;17.70;56.30;;;;;;5050000;28;20450;-66
2022/04/13 08:32:24;;;;;;;9.23;5.83;;;17.70;54.70;;;;;;5050617;28;20457;-68
2022/04/13 08:34:53;;;;;;;9.87;6.20;;;17.70;54.90;;;;;;5050322;28;20458;-67
2022/04/13 08:37:21;;;;;;;11.90;6.63;;;18.00;54.70;;;;;;5050352;28;20450;-67
2022/04/13 08:39:48;;;;;;;7.30;5.50;;;18.20;54.20;;;;;;5050050;28;20450;-67
2022/04/13 08:42:24;;;;;;;10.10;6.80;;;18.30;52.70;;;;;;5050064;28;20465;-68
2022/04/13 08:44:53;;;;;;;8.00;5.60;;;18.50;51.70;;;;;;5050263;28;20452;-67
2022/04/13 08:47:21;;;;;;;8.50;5.60;;;18.60;49.60;;;;;;5050240;28;20485;-66
2022/04/13 08:49:51;;;;;;;8.40;4.90;;;18.50;47.10;;;;;;5049619;28;20493;-67
2022/04/13 08:52:25;;;;;;;6.40;3.20;;;18.60;46.80;;;;;;5050038;28;20454;-67
2022/04/13 08:55:04;;;;;;;9.80;4.33;;;18.60;42.10;;;;;;5049972;28;20484;-69
2022/04/13 08:57:36;;;;;;;6.70;4.27;;;18.50;42.10;;;;;;5050210;28;20533;-68
2022/04/13 09:00:10;;;;;;;10.57;5.10;;;18.60;43.80;;;;;;5049771;28;20442;-66
2022/04/13 09:03:09;;;;;;;7.17;4.17;;;18.90;42.50;;;;;;5050065;28;20759;-68
2022/04/13 09:05:38;;;;;;;7.47;4.50;;;18.90;39.20;;;;;;5049574;28;20637;-67
2022/04/13 09:08:13;;;;;;;18.50;13.67;;;18.50;40.80;;;;;;5049664;28;20497;-67
2022/04/13 09:10:41;;;;;;;6.73;5.00;;;18.60;41.30;;;;;;5049028;28;20521;-67
2022/04/13 09:13:10;;;;;;;7.00;4.33;;;18.80;42.20;;;;;;5049377;28;20541;-66
2022/04/13 09:15:39;;;;;;;6.47;4.87;;;19.20;41.90;;;;;;5049502;28;20537;-68
2022/04/13 09:18:08;;;;;;;7.90;5.13;;;19.10;41.30;;;;;;5049471;28;20454;-67
2022/04/13 09:20:35;;;;;;;9.30;4.67;;;19.20;40.90;;;;;;5049474;28;20572;-67
2022/04/13 09:23:03;;;;;;;7.80;5.10;;;19.30;41.20;;;;;;5049450;28;20454;-67
2022/04/13 09:25:33;;;;;;;8.33;5.20;;;19.10;39.20;;;;;;5049609;28;20456;-67
2022/04/13 09:28:02;;;;;;;9.67;6.00;;;18.70;39.10;;;;;;5049103;28;20982;-68
2022/04/13 09:30:31;;;;;;;7.20;5.03;;;18.70;40.20;;;;;;5049452;28;20519;-66
2022/04/13 09:32:59;;;;;;;8.47;5.23;;;18.90;39.80;;;;;;5049263;28;20527;-69
2022/04/13 09:35:26;;;;;;;8.73;5.50;;;18.70;39.70;;;;;;5048864;28;20453;-67
2022/04/13 09:37:54;;;;;;;5.93;4.23;;;18.80;39.20;;;;;;5048831;28;20458;-69
2022/04/13 09:40:34;;;;;;;10.20;4.83;;;18.80;38.70;;;;;;5048927;28;20481;-66
2022/04/13 09:43:06;;;;;;;6.83;3.70;;;18.60;37.10;;;;;;5049305;28;20455;-68
2022/04/13 09:45:37;;;;;;;6.60;4.13;;;18.60;37.90;;;;;;5049159;28;20481;-66
2022/04/13 09:48:09;;;;;;;7.80;4.27;;;19.00;38.10;;;;;;5048728;28;20490;-67
2022/04/13 09:50:37;;;;;;;8.70;4.43;;;19.10;38.00;;;;;;5048606;28;21253;-68
2022/04/13 09:53:05;;;;;;;9.47;4.63;;;19.30;37.40;;;;;;5048873;28;20466;-68
2022/04/13 09:55:38;;;;;;;5.63;3.17;;;19.70;36.70;;;;;;5049062;28;20559;-67
2022/04/13 09:58:07;;;;;;;5.50;2.67;;;20.00;35.70;;;;;;5049156;28;20863;-67
2022/04/13 10:00:36;;;;;;;5.00;2.70;;;20.40;34.20;;;;;;5048849;28;20474;-67
2022/04/13 10:03:14;;;;;;;6.20;2.97;;;20.70;34.40;;;;;;5047453;28;20454;-68
2022/04/13 10:05:45;;;;;;;6.10;2.63;;;20.40;32.70;;;;;;5048948;28;20460;-68
2022/04/13 10:08:14;;;;;;;5.83;3.57;;;20.40;34.70;;;;;;5048954;28;20547;-67
2022/04/13 10:10:45;;;;;;;5.47;3.33;;;20.60;35.70;;;;;;5048728;28;20504;-69
2022/04/13 10:13:14;;;;;;;7.80;3.53;;;20.70;36.50;;;;;;5048747;28;20458;-66
2022/04/13 10:15:56;;;;;;;4.93;3.13;;;20.90;36.10;;;;;;5048701;28;20982;-67
2022/04/13 10:18:24;;;;;;;6.53;3.43;;;21.00;35.30;;;;;;5048871;28;20890;-67
2022/04/13 10:20:51;;;;;;;8.60;3.63;;;21.20;35.00;;;;;;5048486;28;21048;-67
2022/04/13 10:23:20;;;;;;;6.60;3.17;;;21.50;34.60;;;;;;5049006;28;20523;-66
2022/04/13 10:25:48;;;;;;;9.60;3.63;;;21.70;33.50;;;;;;5048623;28;20473;-68
2022/04/13 10:28:22;;;;;;;4.73;3.00;;;21.90;33.70;;;;;;5048819;28;20493;-67
2022/04/13 10:30:49;;;;;;;5.03;3.00;;;21.90;33.70;;;;;;5048794;28;20474;-69
2022/04/13 10:33:16;;;;;;;7.27;4.17;;;22.20;32.00;;;;;;5048503;28;20446;-67
2022/04/13 10:35:45;;;;;;;6.73;3.60;;;21.90;31.90;;;;;;5048810;28;20461;-68
2022/04/13 10:38:13;;;;;;;10.10;4.20;;;21.90;33.20;;;;;;5048481;28;20826;-69
2022/04/13 10:40:42;;;;;;;7.30;3.53;;;22.00;33.90;;;;;;5048500;28;20830;-67
2022/04/13 10:43:13;;;;;;;5.93;3.50;;;22.10;33.90;;;;;;5048718;28;20459;-67
2022/04/13 10:45:41;;;;;;;6.43;3.87;;;22.30;33.60;;;;;;5049124;28;20798;-68
2022/04/13 10:48:10;;;;;;;6.47;3.63;;;22.70;32.40;;;;;;5048160;28;20493;-69
2022/04/13 10:50:49;;;;;;;5.07;3.00;;;22.90;31.70;;;;;;5050020;28;20477;-68
2022/04/13 10:53:26;;;;;;;5.17;2.77;;;23.10;31.90;;;;;;5052131;28;20925;-66
2022/04/13 10:55:58;;;;;;;6.30;3.30;;;23.10;30.00;;;;;;5052298;28;20446;-66
2022/04/13 10:58:37;;;;;;;5.00;3.47;;;23.10;31.10;;;;;;5052378;28;20548;-67
2022/04/13 11:01:09;;;;;;;6.20;2.70;;;23.20;30.40;;;;;;5052352;28;20917;-67
2022/04/13 11:03:37;;;;;;;5.60;2.40;;;23.30;29.20;;;;;;5052245;28;20450;-68
2022/04/13 11:06:06;;;;;;;6.53;3.90;;;23.50;29.50;;;;;;5052213;28;20465;-68
2022/04/13 11:08:48;;;;;;;5.67;3.70;;;23.50;30.80;;;;;;5052101;28;20678;-67
2022/04/13 11:11:20;;;;;;;7.30;3.70;;;23.40;30.00;;;;;;5051695;28;21085;-67
2022/04/13 11:13:50;;;;;;;7.10;3.50;;;23.50;30.90;;;;;;5051387;28;20461;-67
2022/04/13 11:16:19;;;;;;;7.00;4.43;;;23.80;30.90;;;;;;5051645;28;20449;-67
2022/04/13 11:19:19;;;;;;;5.33;3.60;;;23.70;29.90;;;;;;5051701;28;20942;-68
2022/04/13 11:22:20;;;;;;;6.77;4.03;;;23.50;29.60;;;;;;5051744;28;20462;-68
2022/04/13 11:24:58;;;;;;;7.60;4.73;;;23.00;29.40;;;;;;5009223;28;20447;-69
2022/04/13 11:27:26;;;;;;;7.90;3.97;;;22.90;31.40;;;;;;5009058;28;20456;-68
2022/04/13 11:30:02;;;;;;;6.03;3.73;;;23.00;32.00;;;;;;5031574;28;20556;-69
2022/04/13 11:32:33;;;;;;;6.70;4.40;;;23.10;32.00;;;;;;5051597;28;20453;-67
2022/04/13 11:35:02;;;;;;;6.40;3.70;;;23.10;31.40;;;;;;5051598;28;20453;-67
2022/04/13 11:37:43;;;;;;;7.00;3.50;;;23.30;31.70;;;;;;5051546;28;20454;-68
2022/04/13 11:40:12;;;;;;;5.30;2.93;;;23.40;31.90;;;;;;5051443;28;20454;-69
2022/04/13 11:42:53;;;;;;;4.83;3.10;;;23.60;31.50;;;;;;5051238;28;20449;-68
2022/04/13 11:45:23;;;;;;;5.10;2.97;;;23.80;31.70;;;;;;5051129;28;20549;-67
2022/04/13 11:47:56;;;;;;;5.40;2.57;;;23.90;31.30;;;;;;5051340;28;20943;-69
2022/04/13 11:50:24;;;;;;;6.70;3.40;;;23.90;32.80;;;;;;5051329;28;20505;-67
2022/04/13 11:52:53;;;;;;;7.83;3.60;;;23.80;31.60;;;;;;5051288;28;20446;-67
2022/04/13 11:55:22;;;;;;;6.30;2.80;;;23.90;32.50;;;;;;5050806;28;20515;-68
2022/04/13 11:58:21;;;;;;;5.20;3.17;;;23.90;30.00;;;;;;5050803;28;20442;-68
2022/04/13 12:00:57;;;;;;;6.10;3.17;;;23.80;30.00;;;;;;5027392;28;20490;-69
2022/04/13 12:03:27;;;;;;;5.20;2.63;;;23.90;34.60;;;;;;5051085;28;20457;-68
2022/04/13 12:05:55;;;;;;;7.00;4.30;;;24.00;30.80;;;;;;5050555;28;20454;-67
2022/04/13 12:08:25;;;;;;;6.20;3.17;;;24.00;31.90;;;;;;5050773;28;20489;-69
2022/04/13 12:10:55;;;;;;;5.37;2.57;;;24.20;30.90;;;;;;5050186;28;20477;-69
2022/04/13 12:13:23;;;;;;;6.60;2.37;;;24.40;32.30;;;;;;5051061;28;20484;-69
2022/04/13 12:15:53;;;;;;;7.30;3.03;;;24.60;31.30;;;;;;5050761;28;20449;-67
2022/04/13 12:18:21;;;;;;;4.67;2.50;;;24.80;30.50;;;;;;5050795;28;20639;-68
2022/04/13 12:20:49;;;;;;;4.30;2.40;;;24.70;31.20;;;;;;5050598;28;20517;-68
2022/04/13 12:23:25;;;;;;;4.43;2.70;;;24.80;31.40;;;;;;5050717;28;20458;-68
2022/04/13 12:25:54;;;;;;;7.40;4.73;;;25.00;31.10;;;;;;5050665;28;21095;-68
2022/04/13 12:28:22;;;;;;;6.70;4.27;;;24.40;29.70;;;;;;5050530;28;20974;-67
2022/04/13 12:31:03;;;;;;;6.40;3.40;;;24.10;30.30;;;;;;5050480;28;20474;-68
2022/04/13 12:33:31;;;;;;;4.63;2.33;;;24.20;30.80;;;;;;5050433;28;20450;-67
2022/04/13 12:35:59;;;;;;;9.67;2.37;;;24.50;31.20;;;;;;5050449;28;20488;-68
2022/04/13 12:38:29;;;;;;;5.33;2.43;;;24.40;29.00;;;;;;5050304;28;20556;-68
2022/04/13 12:41:07;;;;;;;5.50;2.53;;;24.30;29.70;;;;;;5050284;28;20472;-66
2022/04/13 12:43:34;;;;;;;5.10;2.77;;;24.60;30.70;;;;;;5049694;28;20495;-68
2022/04/13 12:46:11;;;;;;;5.00;2.60;;;24.60;29.20;;;;;;5049010;28;20457;-67
2022/04/13 12:48:38;;;;;;;4.70;2.50;;;24.70;30.10;;;;;;5049693;28;20493;-68
2022/04/13 12:51:06;;;;;;;4.47;2.10;;;24.80;31.70;;;;;;5049901;28;20470;-68
2022/04/13 12:54:00;;;;;;;4.80;2.37;;;24.70;29.90;;;;;;5049754;28;20946;-68